createdAt,value
2019-01-18T00:00:02.972Z,2.6
2019-01-18T00:15:03.297Z,2.5
2019-01-18T00:30:02.890Z,2.4
2019-01-18T00:45:02.916Z,2.3
2019-01-18T01:00:03.311Z,2.4
2019-01-18T01:15:03.544Z,2.6
2019-01-18T01:32:11.000Z,2.4
2019-01-18T01:45:29.678Z,1.4
2019-01-18T02:00:03.412Z,1.4
2019-01-18T02:15:02.468Z,1.4
2019-01-18T02:30:02.912Z,1.3
2019-01-18T02:45:03.309Z,1.2
2019-01-18T03:00:04.845Z,1.1
2019-01-18T03:15:02.817Z,1.1
2019-01-18T03:30:03.226Z,1
2019-01-18T03:45:02.778Z,1
2019-01-18T04:00:03.134Z,0.9
2019-01-18T04:15:03.465Z,0.8
2019-01-18T04:30:02.822Z,0.6
2019-01-18T04:45:03.155Z,0.7
2019-01-18T05:00:03.392Z,0.6
2019-01-18T05:15:02.665Z,0.6
2019-01-18T05:30:03.056Z,0.5
2019-01-18T05:45:03.370Z,0.6
2019-01-18T06:00:02.626Z,0.5
2019-01-18T06:15:02.927Z,0.6
2019-01-18T06:30:03.609Z,0.7
2019-01-18T06:45:02.624Z,0.6
2019-01-18T07:00:03.055Z,0.6
2019-01-18T07:15:03.287Z,0.6
2019-01-18T07:30:02.663Z,0.6
2019-01-18T07:45:02.899Z,0.6
2019-01-18T08:00:03.142Z,-0.6
2019-01-18T08:15:03.437Z,-0.2
2019-01-18T08:30:02.823Z,0.1
2019-01-18T08:45:03.083Z,1
2019-01-18T09:00:03.389Z,1.2
2019-01-18T09:15:02.668Z,1.1
2019-01-18T09:30:03.137Z,1.4
2019-01-18T09:45:03.386Z,2
2019-01-18T10:00:02.794Z,1.8
2019-01-18T10:15:02.994Z,1.4
2019-01-18T10:30:03.271Z,1.2
2019-01-18T10:45:02.663Z,2.2
2019-01-18T11:00:03.418Z,1.9
2019-01-18T11:15:03.151Z,1.6
2019-01-18T11:30:02.501Z,1.9
2019-01-18T11:45:02.846Z,0.9
2019-01-18T12:00:03.308Z,1.1
2019-01-18T12:15:02.828Z,1.5
2019-01-18T12:30:03.138Z,0.7
2019-01-18T12:45:03.394Z,1.4
2019-01-18T13:00:02.734Z,1.5
2019-01-18T13:15:03.216Z,2
2019-01-18T13:30:02.577Z,1.9
2019-01-18T13:45:02.993Z,2.2
2019-01-18T14:00:03.571Z,1.8
2019-01-18T14:15:02.743Z,1.8
2019-01-18T14:30:03.239Z,2.1
2019-01-18T14:45:03.409Z,2.1
2019-01-18T15:00:09.090Z,2.1
2019-01-18T15:15:02.706Z,1.6
2019-01-18T15:30:06.777Z,1.2
2019-01-18T15:45:02.599Z,0.9
2019-01-18T16:00:03.033Z,0.7
2019-01-18T16:15:03.310Z,0.1
2019-01-18T16:30:02.498Z,-0.1
2019-01-18T16:45:02.814Z,-0.5
2019-01-18T17:00:03.023Z,-1.2
2019-01-18T17:15:03.371Z,-0.9
2019-01-18T17:30:02.749Z,-1.1
2019-01-18T17:45:02.994Z,-1.4
2019-01-18T18:00:03.725Z,-1.4
2019-01-18T18:15:02.700Z,-1.8
2019-01-18T18:30:02.988Z,-1.9
2019-01-18T18:45:03.307Z,-1.9
2019-01-18T19:00:02.588Z,-2
2019-01-18T19:15:02.921Z,-2.3
2019-01-18T19:30:03.173Z,-2.4
2019-01-18T19:45:02.779Z,-2.6
2019-01-18T20:00:03.025Z,-3.1
2019-01-18T20:15:03.309Z,-2.8
2019-01-18T20:30:03.512Z,-2.8
2019-01-18T20:45:02.977Z,-3
2019-01-18T21:00:03.312Z,-3.1
2019-01-18T21:15:02.679Z,-3.1
2019-01-18T21:30:03.077Z,-3.1
2019-01-18T21:45:03.279Z,-3.2
2019-01-18T22:00:02.581Z,-3.2
2019-01-18T22:15:03.133Z,-3.4
2019-01-18T22:30:02.464Z,-3.3
2019-01-18T22:45:02.734Z,-3.4
2019-01-18T23:00:03.079Z,-3.4
2019-01-18T23:15:03.319Z,-3.4
2019-01-18T23:30:02.656Z,-3.5
2019-01-18T23:45:02.944Z,-3.6
